Time;durP1;ratioP1;P1;durP2;ratioP2;P2;SDS_P1;SDS_P2;PMS_P1;PMS_P2;Temp;Humidity;BMP_temperature;BMP_pressure;BME280_temperature;BME280_humidity;BME280_pressure;Samples;Min_cycle;Max_cycle;Signal;HPM_P1;HPM_P2
2021/12/25 00:01:22;;;;;;;87.65;38.20;;;0.30;99.90;;;;;;5033126;28;20029;-94
2021/12/25 00:03:53;;;;;;;104.35;46.90;;;0.30;99.90;;;;;;5033157;28;20030;-95
2021/12/25 00:06:18;;;;;;;;;;;0.30;99.90;;;;;;5033534;28;20028;-94
2021/12/25 00:08:44;;;;;;;129.48;53.60;;;0.30;99.90;;;;;;5051501;28;19905;-95
2021/12/25 00:11:11;;;;;;;89.85;43.15;;;0.30;99.90;;;;;;5037211;28;20056;-94
2021/12/25 00:13:37;;;;;;;83.07;40.88;;;0.30;99.90;;;;;;5037094;28;20029;-86
2021/12/25 00:16:04;;;;;;;85.35;41.33;;;0.30;99.90;;;;;;5036751;28;20025;-86
2021/12/25 00:18:29;;;;;;;76.30;36.03;;;0.40;99.90;;;;;;5036532;28;20365;-86
2021/12/25 00:20:55;;;;;;;77.43;38.35;;;0.40;99.90;;;;;;5036753;28;20040;-86
2021/12/25 00:23:22;;;;;;;78.78;38.20;;;0.40;99.90;;;;;;5036627;28;20053;-86
2021/12/25 00:25:54;;;;;;;67.95;34.38;;;0.40;99.90;;;;;;5037855;28;20039;-86
2021/12/25 00:31:20;;;;;;;79.32;36.95;;;0.50;99.90;;;;;;5037720;28;20391;-86
2021/12/25 00:36:57;;;;;;;66.00;32.42;;;0.60;99.90;;;;;;5037695;28;20029;-86
2021/12/25 00:39:22;;;;;;;66.13;32.50;;;0.60;99.90;;;;;;5036458;28;20040;-86
2021/12/25 00:41:48;;;;;;;66.45;34.25;;;0.60;99.90;;;;;;5036319;28;20025;-86
2021/12/25 00:44:13;;;;;;;75.07;35.33;;;0.60;99.90;;;;;;5037529;28;20113;-86
2021/12/25 00:46:39;;;;;;;72.65;35.53;;;0.60;99.90;;;;;;5035920;28;20091;-85
2021/12/25 00:49:05;;;;;;;64.32;33.10;;;0.60;99.90;;;;;;5036281;28;20061;-86
2021/12/25 00:51:30;;;;;;;66.90;34.30;;;0.60;99.90;;;;;;5036221;28;20100;-86
2021/12/25 00:53:56;;;;;;;75.25;37.08;;;0.60;99.90;;;;;;5036198;28;20025;-86
2021/12/25 00:56:22;;;;;;;70.78;35.08;;;0.60;99.90;;;;;;5037339;28;20021;-86
2021/12/25 00:58:47;;;;;;;72.57;35.65;;;0.70;99.90;;;;;;5036059;28;20030;-87
2021/12/25 01:01:13;;;;;;;71.28;35.75;;;0.70;99.90;;;;;;5036222;28;20076;-87
2021/12/25 01:03:39;;;;;;;67.45;33.67;;;0.70;99.90;;;;;;5035929;28;20022;-86
2021/12/25 01:06:04;;;;;;;66.20;34.47;;;0.70;99.90;;;;;;5035958;28;20022;-86
2021/12/25 01:08:30;;;;;;;85.53;41.33;;;0.70;99.90;;;;;;5035704;28;20116;-87
2021/12/25 01:10:56;;;;;;;69.00;36.13;;;0.70;99.90;;;;;;5035985;28;20032;-87
2021/12/25 01:13:29;;;;;;;83.05;40.75;;;0.80;99.90;;;;;;5052550;28;20057;-86
2021/12/25 01:29:32;;;;;;;80.65;40.10;;;0.80;99.90;;;;;;5036939;28;20030;-87
2021/12/25 01:32:18;;;;;;;81.18;39.35;;;0.80;99.90;;;;;;5035630;28;20021;-87
2021/12/25 01:37:34;;;;;;;79.15;37.88;;;0.80;99.90;;;;;;5036437;28;20087;-87
2021/12/25 01:40:54;;;;;;;80.95;39.35;;;0.80;99.90;;;;;;5051996;28;20025;-87
2021/12/25 01:48:02;;;;;;;80.82;39.28;;;0.80;99.90;;;;;;5035982;28;20084;-87
2021/12/25 01:50:30;;;;;;;78.32;37.90;;;0.80;99.90;;;;;;5035098;28;20026;-86
2021/12/25 01:52:57;;;;;;;78.43;36.50;;;0.90;99.90;;;;;;5034996;28;20029;-87
2021/12/25 01:55:28;;;;;;;78.28;38.05;;;0.80;99.90;;;;;;5034891;28;20033;-86
2021/12/25 01:57:56;;;;;;;76.85;37.72;;;0.90;99.90;;;;;;5035079;28;20021;-87
2021/12/25 02:00:27;;;;;;;76.45;37.67;;;0.90;99.90;;;;;;5034580;28;20060;-86
2021/12/25 02:02:54;;;;;;;71.78;35.13;;;0.90;99.90;;;;;;5034766;28;20185;-86
2021/12/25 02:05:20;;;;;;;73.53;34.65;;;0.90;99.90;;;;;;5034689;28;20029;-86
2021/12/25 02:07:46;;;;;;;70.25;33.90;;;1.00;99.90;;;;;;5034551;28;20040;-86
2021/12/25 02:10:14;;;;;;;65.15;31.67;;;1.00;99.90;;;;;;5035730;28;20102;-86
2021/12/25 02:12:41;;;;;;;61.15;31.95;;;1.00;99.90;;;;;;5034493;28;20391;-86
2021/12/25 02:15:14;;;;;;;71.68;34.58;;;1.10;99.90;;;;;;5035730;28;20399;-87
2021/12/25 02:20:32;;;;;;;57.53;30.23;;;1.10;99.90;;;;;;5036064;28;20040;-86
2021/12/25 02:23:04;;;;;;;57.33;29.35;;;1.10;99.90;;;;;;5034275;28;20021;-86
2021/12/25 02:28:53;;;;;;;61.75;29.77;;;1.20;99.90;;;;;;5035317;28;20092;-86
2021/12/25 02:31:20;;;;;;;53.70;27.95;;;1.20;99.90;;;;;;5033406;28;20051;-87
2021/12/25 02:33:46;;;;;;;55.05;28.50;;;1.30;99.90;;;;;;5034036;28;20076;-86
2021/12/25 02:36:13;;;;;;;53.00;28.88;;;1.30;99.90;;;;;;5034071;28;20383;-86
2021/12/25 02:38:40;;;;;;;53.55;27.63;;;1.30;99.90;;;;;;5035187;28;20029;-86
2021/12/25 02:41:06;;;;;;;57.60;29.13;;;1.30;99.90;;;;;;5034074;28;20061;-86
2021/12/25 02:43:33;;;;;;;55.75;28.45;;;1.40;99.90;;;;;;5033829;28;20021;-86
2021/12/25 02:46:03;;;;;;;55.45;28.27;;;1.30;99.90;;;;;;5035064;28;20104;-86
2021/12/25 02:48:30;;;;;;;50.47;27.63;;;1.40;99.90;;;;;;5033700;28;20022;-87
2021/12/25 02:50:56;;;;;;;52.90;27.90;;;1.40;99.90;;;;;;5033895;28;20029;-86
2021/12/25 02:53:23;;;;;;;52.58;27.00;;;1.30;99.90;;;;;;5034951;28;20026;-86
2021/12/25 02:55:48;;;;;;;54.20;27.25;;;1.30;99.90;;;;;;5033832;28;20076;-87
2021/12/25 02:58:19;;;;;;;49.08;26.52;;;1.40;99.90;;;;;;5033743;28;20502;-86
2021/12/25 03:00:50;;;;;;;52.20;27.05;;;1.40;99.90;;;;;;5033625;28;20053;-86
2021/12/25 03:03:16;;;;;;;48.17;26.02;;;1.40;99.90;;;;;;5033675;28;20380;-87
2021/12/25 03:05:43;;;;;;;49.88;26.77;;;1.40;99.90;;;;;;5033598;28;20117;-86
2021/12/25 03:08:11;;;;;;;49.15;26.13;;;1.40;99.90;;;;;;5034731;28;20026;-87
2021/12/25 03:10:37;;;;;;;43.35;25.20;;;1.50;99.90;;;;;;5033521;28;20088;-86
2021/12/25 03:13:18;;;;;;;46.92;25.85;;;1.50;99.90;;;;;;5033292;28;20502;-86
2021/12/25 03:15:46;;;;;;;44.65;24.77;;;1.50;99.90;;;;;;5033432;28;20124;-86
2021/12/25 03:18:25;;;;;;;46.38;26.48;;;1.60;99.90;;;;;;5034540;28;20032;-86
2021/12/25 03:20:55;;;;;;;44.75;25.17;;;1.60;99.90;;;;;;5033486;28;20065;-86
2021/12/25 03:23:23;;;;;;;43.92;24.63;;;1.60;99.90;;;;;;5033213;28;20025;-86
2021/12/25 03:25:51;;;;;;;42.03;24.27;;;1.60;99.90;;;;;;5033308;28;20025;-87
2021/12/25 03:28:19;;;;;;;46.08;25.08;;;1.60;99.90;;;;;;5033233;28;20030;-86
2021/12/25 03:30:45;;;;;;;44.05;24.55;;;1.60;99.90;;;;;;5033100;28;20028;-86
2021/12/25 03:33:15;;;;;;;47.15;25.77;;;1.70;99.90;;;;;;5034384;28;20026;-86
2021/12/25 03:35:41;;;;;;;39.92;23.60;;;1.70;99.90;;;;;;5033125;28;20017;-87
2021/12/25 03:38:10;;;;;;;43.33;24.40;;;1.60;99.90;;;;;;5033139;28;20030;-87
2021/12/25 03:40:36;;;;;;;42.70;22.85;;;1.70;99.90;;;;;;5033339;28;20032;-87
2021/12/25 03:43:03;;;;;;;43.67;23.88;;;1.70;99.90;;;;;;5032887;28;20036;-87
2021/12/25 03:45:31;;;;;;;39.85;23.13;;;1.70;99.90;;;;;;5033175;28;20030;-86
2021/12/25 03:49:01;;;;;;;42.70;22.58;;;1.70;99.90;;;;;;5034154;28;20041;-88
2021/12/25 03:59:04;;;;;;;42.08;21.35;;;1.80;99.90;;;;;;5034735;28;20075;-87
2021/12/25 04:01:46;;;;;;;37.35;21.13;;;1.80;99.90;;;;;;5033236;28;20018;-88
2021/12/25 04:04:24;;;;;;;36.60;21.83;;;1.80;99.90;;;;;;5033866;28;20037;-87
2021/12/25 04:07:12;;;;;;;36.80;20.30;;;1.90;99.90;;;;;;5033121;28;20445;-87
2021/12/25 04:09:40;;;;;;;38.47;21.83;;;1.90;99.90;;;;;;5014465;28;20018;-88
2021/12/25 04:12:10;;;;;;;36.30;20.42;;;2.00;99.90;;;;;;5013330;28;20026;-88
2021/12/25 04:14:36;;;;;;;35.63;21.02;;;2.00;99.90;;;;;;5014288;28;20033;-87
2021/12/25 04:17:02;;;;;;;36.22;21.15;;;2.10;99.90;;;;;;5031191;28;20057;-87
2021/12/25 04:19:28;;;;;;;37.92;20.65;;;2.10;99.90;;;;;;5033034;28;20028;-87
2021/12/25 04:21:58;;;;;;;34.47;20.75;;;2.20;99.90;;;;;;5034027;28;20109;-88
2021/12/25 04:24:26;;;;;;;36.72;20.33;;;2.20;99.90;;;;;;5032898;28;20115;-87
2021/12/25 04:26:52;;;;;;;37.92;21.85;;;2.30;99.90;;;;;;5034126;28;20028;-87
2021/12/25 05:01:52;;;;;;;30.45;17.98;;;2.50;99.90;;;;;;5018044;28;20040;-88
2021/12/25 05:04:43;;;;;;;32.03;17.65;;;2.50;99.90;;;;;;5016279;28;20037;-87
2021/12/25 05:07:09;;;;;;;31.77;18.40;;;2.50;99.90;;;;;;5017799;28;20034;-87
2021/12/25 05:09:35;;;;;;;26.90;17.50;;;2.50;99.90;;;;;;5032901;28;20021;-87
2021/12/25 05:12:01;;;;;;;30.95;17.95;;;2.60;99.90;;;;;;5017340;28;20096;-87
2021/12/25 05:14:27;;;;;;;33.38;17.50;;;2.60;99.90;;;;;;5032578;28;20118;-87
2021/12/25 05:16:52;;;;;;;29.25;17.35;;;2.50;99.90;;;;;;5032555;28;20034;-90
2021/12/25 05:19:19;;;;;;;31.92;18.10;;;2.60;99.90;;;;;;5032603;28;20059;-87
2021/12/25 05:21:44;;;;;;;43.42;23.27;;;2.60;99.90;;;;;;5032848;28;20040;-90
2021/12/25 05:24:10;;;;;;;48.17;26.10;;;2.60;99.90;;;;;;5017034;28;20404;-89
2021/12/25 13:25:33;;;;;;;57.20;28.48;;;0.10;99.90;;;;;;5112323;27;20754;-85
2021/12/25 13:28:02;;;;;;;58.60;28.45;;;0.00;99.90;;;;;;5110964;28;20024;-86
2021/12/25 13:30:31;;;;;;;51.38;26.40;;;0.00;99.90;;;;;;5110956;28;20026;-85
2021/12/25 13:33:10;;;;;;;49.15;25.90;;;0.00;99.90;;;;;;5112082;28;20020;-85
2021/12/25 13:35:36;;;;;;;52.22;26.58;;;0.10;99.90;;;;;;5110742;28;20027;-86
2021/12/25 13:38:02;;;;;;;49.63;25.70;;;0.10;99.90;;;;;;5112155;28;20024;-86
2021/12/25 13:40:28;;;;;;;55.25;27.17;;;0.10;99.90;;;;;;5110627;28;20546;-85
2021/12/25 13:42:55;;;;;;;54.25;30.10;;;0.10;99.90;;;;;;5110788;28;20024;-86
2021/12/25 13:45:22;;;;;;;54.65;29.90;;;0.20;99.90;;;;;;5111720;28;20028;-86
2021/12/25 13:47:48;;;;;;;72.57;33.33;;;0.20;99.90;;;;;;5111753;28;20454;-85
2021/12/25 13:50:14;;;;;;;75.43;36.25;;;0.20;99.90;;;;;;5111045;28;20158;-87
2021/12/25 13:52:48;;;;;;;90.65;44.00;;;0.30;99.90;;;;;;5110453;28;20024;-87
2021/12/25 13:55:19;;;;;;;102.63;49.28;;;0.30;99.90;;;;;;5110324;28;20027;-86
2021/12/25 13:57:48;;;;;;;102.45;50.83;;;0.40;99.90;;;;;;5109932;28;20023;-86
2021/12/25 14:00:27;;;;;;;64.38;33.10;;;0.50;99.90;;;;;;5107684;28;20665;-89
2021/12/25 14:03:01;;;;;;;58.03;32.17;;;0.70;99.90;;;;;;5088529;28;20383;-90
2021/12/25 14:05:29;;;;;;;57.83;32.22;;;0.70;99.90;;;;;;5108110;28;20036;-88
2021/12/25 14:07:55;;;;;;;62.45;34.30;;;0.80;99.90;;;;;;5110472;28;20035;-88
2021/12/25 14:10:28;;;;;;;65.30;36.28;;;0.80;99.90;;;;;;5110366;28;20024;-89
2021/12/25 14:12:57;;;;;;;66.25;34.58;;;0.90;99.90;;;;;;5093880;28;20032;-88
2021/12/25 14:15:25;;;;;;;67.78;34.42;;;0.90;99.90;;;;;;5093014;28;20042;-88
2021/12/25 14:17:51;;;;;;;67.88;34.28;;;0.90;99.90;;;;;;5110044;28;20028;-88
2021/12/25 14:20:26;;;;;;;94.10;41.47;;;0.90;99.90;;;;;;5110151;28;20530;-88
2021/12/25 14:23:07;;;;;;;73.22;36.38;;;0.90;99.90;;;;;;5110782;28;20031;-88
2021/12/25 14:25:34;;;;;;;;;;;0.90;99.90;;;;;;5110463;28;20055;-88
2021/12/25 14:28:11;;;;;;;77.25;35.80;;;0.80;99.90;;;;;;5109846;28;19927;-88
2021/12/25 14:30:44;;;;;;;73.00;36.38;;;0.90;99.90;;;;;;5109243;28;20046;-89
2021/12/25 14:33:18;;;;;;;121.63;51.00;;;0.90;99.90;;;;;;5109970;28;20028;-89
2021/12/25 14:35:45;;;;;;;72.10;36.13;;;0.80;99.90;;;;;;5103091;28;20055;-89
2021/12/25 14:38:11;;;;;;;78.65;36.17;;;1.10;99.90;;;;;;5096336;28;20036;-89
2021/12/25 14:40:46;;;;;;;239.85;117.53;;;1.40;99.90;;;;;;5096590;28;20042;-89
2021/12/25 14:43:14;;;;;;;374.27;155.32;;;1.50;99.90;;;;;;5096364;28;20028;-89
2021/12/25 14:45:49;;;;;;;479.20;250.05;;;1.50;99.90;;;;;;5086913;28;20470;-88
2021/12/25 14:48:36;;;;;;;132.98;72.03;;;1.50;99.90;;;;;;5076577;28;20059;-89
2021/12/25 14:51:09;;;;;;;160.52;79.05;;;1.40;99.90;;;;;;5077319;28;20097;-89
2021/12/25 14:53:55;;;;;;;74.60;41.40;;;1.30;99.90;;;;;;5077930;28;20174;-89
2021/12/25 14:56:31;;;;;;;68.95;36.42;;;1.30;99.90;;;;;;5076983;28;20047;-89
2021/12/25 14:59:01;;;;;;;64.60;33.88;;;1.20;99.90;;;;;;5075707;28;20024;-89
2021/12/25 15:01:38;;;;;;;77.43;40.13;;;1.20;99.90;;;;;;5092328;28;20020;-88
2021/12/25 15:04:24;;;;;;;106.95;52.10;;;1.20;99.90;;;;;;5075686;28;20043;-89
2021/12/25 15:07:05;;;;;;;117.90;54.58;;;1.20;99.90;;;;;;5075586;28;20024;-90
2021/12/25 15:09:38;;;;;;;100.70;51.35;;;1.20;99.90;;;;;;5075406;28;20059;-89
2021/12/25 15:12:21;;;;;;;95.55;50.30;;;1.10;99.90;;;;;;5075321;28;20036;-90
2021/12/25 15:14:54;;;;;;;75.53;41.50;;;1.10;99.90;;;;;;5103917;28;20024;-89
2021/12/25 15:17:28;;;;;;;63.45;34.90;;;1.10;99.90;;;;;;5095837;28;20028;-89
2021/12/25 15:20:08;;;;;;;60.30;32.65;;;1.00;99.90;;;;;;5095219;28;20032;-89
2021/12/25 15:22:35;;;;;;;56.57;30.73;;;1.00;99.90;;;;;;5095328;28;20028;-90
2021/12/25 15:25:06;;;;;;;56.63;30.85;;;1.00;99.90;;;;;;5095208;28;20044;-89
2021/12/25 15:27:34;;;;;;;52.80;29.92;;;0.90;99.90;;;;;;5095628;28;20028;-89
2021/12/25 15:30:12;;;;;;;65.22;34.53;;;0.90;99.90;;;;;;5095892;28;20024;-89
2021/12/25 15:32:43;;;;;;;62.85;35.35;;;0.90;99.90;;;;;;5095992;28;20028;-90
2021/12/25 15:35:13;;;;;;;56.67;29.40;;;0.90;99.90;;;;;;5095151;28;20035;-89
2021/12/25 15:37:50;;;;;;;61.83;34.55;;;0.90;99.90;;;;;;5095393;28;20020;-89
2021/12/25 15:40:22;;;;;;;59.13;33.55;;;0.80;99.90;;;;;;5095313;28;20035;-89
2021/12/25 15:42:48;;;;;;;68.25;38.13;;;0.90;99.90;;;;;;5094758;28;20028;-90
2021/12/25 15:45:15;;;;;;;167.73;96.68;;;0.90;99.90;;;;;;5095157;28;20098;-90
2021/12/25 15:47:42;;;;;;;119.40;64.55;;;0.90;99.90;;;;;;5094590;28;20020;-89
2021/12/25 15:50:11;;;;;;;197.70;106.15;;;0.90;99.90;;;;;;5095250;28;20052;-90
2021/12/25 15:52:37;;;;;;;99.85;53.05;;;0.90;99.90;;;;;;5094746;28;20469;-88
2021/12/25 15:55:04;;;;;;;71.28;41.20;;;0.90;99.90;;;;;;5083359;28;20040;-90
2021/12/25 15:57:30;;;;;;;83.32;45.70;;;0.90;99.90;;;;;;5074299;28;20467;-89
2021/12/25 15:59:55;;;;;;;99.43;53.10;;;0.90;99.90;;;;;;5075733;28;20035;-90
2021/12/25 16:02:27;;;;;;;88.80;43.95;;;0.90;99.90;;;;;;5074305;28;20544;-89
2021/12/25 16:04:54;;;;;;;103.22;45.05;;;0.80;99.90;;;;;;5074312;28;20470;-91
2021/12/25 16:07:20;;;;;;;122.57;48.67;;;0.90;99.90;;;;;;5074399;28;20029;-90
2021/12/25 16:09:46;;;;;;;88.10;38.08;;;0.80;99.90;;;;;;5074286;28;20020;-90
2021/12/25 16:12:12;;;;;;;95.43;39.38;;;0.80;99.90;;;;;;5074252;28;20070;-90
2021/12/25 16:14:39;;;;;;;86.53;34.53;;;0.80;99.90;;;;;;5074146;28;20024;-89
2021/12/25 16:17:05;;;;;;;97.25;45.80;;;0.80;99.90;;;;;;5074049;28;20033;-90
2021/12/25 16:19:32;;;;;;;92.55;40.55;;;0.80;99.90;;;;;;5073983;28;20105;-90
2021/12/25 16:21:59;;;;;;;66.63;33.17;;;0.90;99.90;;;;;;5073896;28;20036;-90
2021/12/25 16:24:25;;;;;;;79.18;39.42;;;0.90;99.90;;;;;;5074801;28;20079;-88
2021/12/25 16:26:51;;;;;;;76.18;38.30;;;0.90;99.90;;;;;;5074780;28;20024;-90
2021/12/25 16:29:18;;;;;;;54.42;29.50;;;0.90;99.90;;;;;;5074013;28;20085;-90
2021/12/25 16:31:44;;;;;;;51.90;29.08;;;0.80;99.90;;;;;;5074391;28;20055;-90
2021/12/25 16:34:11;;;;;;;36.50;21.75;;;0.80;99.90;;;;;;5073713;28;20029;-88
2021/12/25 16:36:39;;;;;;;101.03;64.75;;;0.70;99.90;;;;;;5073579;28;20078;-90
2021/12/25 16:39:07;;;;;;;35.88;22.52;;;0.70;99.90;;;;;;5073526;28;20060;-90
2021/12/25 16:41:35;;;;;;;40.47;23.80;;;0.70;99.90;;;;;;5075531;28;20031;-90
2021/12/25 16:44:07;;;;;;;32.60;19.73;;;0.70;99.90;;;;;;5075329;28;20123;-89
2021/12/25 16:46:33;;;;;;;26.88;18.05;;;0.70;99.90;;;;;;5073437;28;20031;-92
2021/12/25 16:48:59;;;;;;;29.48;19.40;;;0.60;99.90;;;;;;5073468;28;20067;-89
2021/12/25 16:51:25;;;;;;;29.30;17.45;;;0.60;99.90;;;;;;5073341;28;20020;-89
2021/12/25 16:53:51;;;;;;;36.05;20.85;;;0.60;99.90;;;;;;5076605;28;20427;-91
2021/12/25 16:56:17;;;;;;;20.30;13.27;;;0.60;99.90;;;;;;5093582;28;20020;-91
2021/12/25 16:58:43;;;;;;;65.75;39.42;;;0.50;99.90;;;;;;5093793;28;20470;-92
2021/12/25 17:01:09;;;;;;;28.30;17.75;;;0.50;99.90;;;;;;5094212;28;20024;-90
2021/12/25 17:03:36;;;;;;;33.03;19.27;;;0.50;99.90;;;;;;5093695;28;20024;-91
2021/12/25 17:06:03;;;;;;;30.45;18.42;;;0.50;99.90;;;;;;5093611;28;20050;-91
2021/12/25 17:08:34;;;;;;;44.15;22.40;;;0.50;99.90;;;;;;5094846;28;20032;-90
2021/12/25 17:10:59;;;;;;;37.20;18.42;;;0.50;99.90;;;;;;5093603;28;20039;-91
2021/12/25 17:13:25;;;;;;;31.65;19.50;;;0.40;99.90;;;;;;5094209;28;20392;-90
2021/12/25 17:15:51;;;;;;;45.88;24.48;;;0.40;99.90;;;;;;5076833;28;20028;-90
2021/12/25 17:18:18;;;;;;;23.02;14.82;;;0.40;99.90;;;;;;5073309;28;20031;-91
2021/12/25 17:20:49;;;;;;;17.95;11.82;;;0.30;99.90;;;;;;5074117;28;20412;-91
2021/12/25 17:23:21;;;;;;;22.23;14.50;;;0.30;99.90;;;;;;5073460;28;20020;-90
2021/12/25 17:25:47;;;;;;;19.05;11.98;;;0.30;99.90;;;;;;5073002;28;20032;-91
2021/12/25 17:28:13;;;;;;;22.13;12.82;;;0.30;99.90;;;;;;5073089;28;20020;-91
2021/12/25 17:30:46;;;;;;;24.23;13.43;;;0.30;99.90;;;;;;5072933;28;20024;-91
2021/12/25 17:33:14;;;;;;;26.95;13.55;;;0.30;99.90;;;;;;5073568;28;20165;-91
2021/12/25 17:35:40;;;;;;;32.60;15.27;;;0.20;99.90;;;;;;5073299;28;20428;-87
2021/12/25 17:38:06;;;;;;;35.20;16.40;;;0.20;99.90;;;;;;5072894;28;20021;-87
2021/12/25 17:40:36;;;;;;;24.05;12.98;;;0.20;99.90;;;;;;5072931;28;20027;-87
2021/12/25 17:43:04;;;;;;;27.17;12.25;;;0.10;99.90;;;;;;5073029;28;20020;-87
2021/12/25 17:45:31;;;;;;;25.15;13.63;;;0.20;99.90;;;;;;5072837;28;20108;-87
2021/12/25 17:47:57;;;;;;;32.15;16.92;;;0.10;99.90;;;;;;5072733;28;20471;-87
2021/12/25 17:50:26;;;;;;;43.05;20.73;;;0.10;99.90;;;;;;5072843;28;20055;-86
2021/12/25 17:52:53;;;;;;;38.13;17.23;;;0.10;99.90;;;;;;5074175;28;20021;-87
2021/12/25 17:55:18;;;;;;;35.40;16.48;;;0.00;99.90;;;;;;5072727;28;20029;-87
2021/12/25 17:57:44;;;;;;;34.67;17.27;;;0.10;99.90;;;;;;5072642;28;20029;-87
2021/12/25 18:00:17;;;;;;;33.28;16.45;;;0.00;99.90;;;;;;5072677;28;20036;-87
2021/12/25 18:02:43;;;;;;;28.02;13.65;;;0.00;99.90;;;;;;5074044;28;20066;-87
2021/12/25 18:05:09;;;;;;;59.85;31.75;;;0.00;99.90;;;;;;5072705;28;20052;-89
2021/12/25 18:07:36;;;;;;;25.27;11.80;;;0.00;99.90;;;;;;5072514;28;20588;-87
2021/12/25 18:10:09;;;;;;;12.02;7.35;;;0.00;99.90;;;;;;5072715;28;20051;-87
2021/12/25 18:12:34;;;;;;;15.13;8.40;;;-0.10;99.90;;;;;;5077556;28;20028;-91
2021/12/25 18:15:00;;;;;;;17.73;7.90;;;-0.20;99.90;;;;;;5076563;28;20116;-87
2021/12/25 18:17:27;;;;;;;15.32;6.80;;;-0.10;99.90;;;;;;5076358;28;20039;-87
2021/12/25 18:19:53;;;;;;;13.30;6.53;;;-0.20;99.90;;;;;;5077338;28;20024;-87
2021/12/25 18:22:19;;;;;;;18.20;7.63;;;-0.20;99.90;;;;;;5076267;28;20024;-87
2021/12/25 18:24:44;;;;;;;13.48;6.43;;;-0.20;99.90;;;;;;5075817;28;20048;-87
2021/12/25 18:27:12;;;;;;;12.13;6.57;;;-0.30;99.70;;;;;;5076116;28;20029;-87
2021/12/25 18:29:38;;;;;;;12.50;6.35;;;-0.20;99.90;;;;;;5076118;28;20466;-87
2021/12/25 18:32:05;;;;;;;11.75;6.05;;;-0.20;99.90;;;;;;5076049;28;20038;-87
2021/12/25 18:34:31;;;;;;;12.18;6.65;;;-0.20;99.90;;;;;;5077106;28;20031;-87
2021/12/25 18:36:57;;;;;;;16.95;7.57;;;-0.20;99.90;;;;;;5077046;28;20016;-91
2021/12/25 18:39:23;;;;;;;14.23;8.18;;;-0.20;99.90;;;;;;5076169;28;20025;-87
2021/12/25 18:41:49;;;;;;;14.02;6.93;;;-0.20;99.90;;;;;;5075968;28;20107;-89
2021/12/25 18:44:17;;;;;;;9.95;5.30;;;-0.20;99.90;;;;;;5075891;28;20136;-87
2021/12/25 18:46:43;;;;;;;9.02;5.30;;;-0.30;98.80;;;;;;5075729;28;20382;-88
2021/12/25 18:49:09;;;;;;;9.90;4.97;;;-0.20;99.10;;;;;;5075804;28;20025;-90
2021/12/25 18:51:35;;;;;;;9.32;5.25;;;-0.30;98.50;;;;;;5075703;28;20021;-89
2021/12/25 18:54:01;;;;;;;8.13;4.68;;;-0.20;98.20;;;;;;5075680;28;20031;-89
2021/12/25 18:56:26;;;;;;;14.73;6.13;;;-0.30;97.40;;;;;;5075609;28;20131;-89
2021/12/25 18:58:52;;;;;;;10.77;5.15;;;-0.30;98.50;;;;;;5076279;28;20111;-89
2021/12/25 19:01:19;;;;;;;10.40;6.13;;;-0.30;99.00;;;;;;5075733;28;20025;-89
2021/12/25 19:03:44;;;;;;;10.30;5.38;;;-0.40;99.20;;;;;;5075529;28;20029;-89
2021/12/25 19:06:11;;;;;;;15.52;7.80;;;-0.40;99.20;;;;;;5076868;28;20027;-89
2021/12/25 19:08:38;;;;;;;11.93;6.97;;;-0.40;96.40;;;;;;5075505;28;20472;-88
2021/12/25 19:11:06;;;;;;;15.65;8.20;;;-0.40;99.00;;;;;;5075386;28;20040;-89
2021/12/25 19:13:34;;;;;;;32.40;17.27;;;-0.40;99.80;;;;;;5075024;28;20028;-87
2021/12/25 19:16:02;;;;;;;22.77;12.70;;;-0.40;99.90;;;;;;5075200;28;20028;-89
2021/12/25 19:29:51;;;;;;;13.55;7.00;;;-0.50;98.30;;;;;;5112752;27;20373;-88
2021/12/25 19:32:17;;;;;;;13.70;6.45;;;-0.60;99.40;;;;;;5128293;28;20024;-88
2021/12/25 19:34:44;;;;;;;13.15;6.78;;;-0.60;99.80;;;;;;5128264;28;20023;-88
2021/12/25 19:37:11;;;;;;;12.55;7.15;;;-0.60;99.90;;;;;;5128217;28;20028;-88
2021/12/25 19:39:37;;;;;;;14.15;7.25;;;-0.60;99.90;;;;;;5128181;28;20024;-89
2021/12/25 19:42:04;;;;;;;16.20;7.82;;;-0.60;99.90;;;;;;5128076;28;20055;-89
2021/12/25 19:44:30;;;;;;;15.90;8.00;;;-0.70;99.90;;;;;;5128082;28;20027;-89
2021/12/25 19:46:56;;;;;;;16.17;8.30;;;-0.60;99.90;;;;;;5128923;28;20034;-89
2021/12/25 19:49:23;;;;;;;17.80;8.75;;;-0.60;99.90;;;;;;5127986;28;20031;-89
2021/12/25 19:51:48;;;;;;;9.63;6.45;;;-0.60;99.90;;;;;;5127898;28;20072;-89
2021/12/25 19:54:15;;;;;;;12.75;7.18;;;-0.60;99.90;;;;;;5127869;28;20020;-89
2021/12/25 19:56:41;;;;;;;13.23;6.60;;;-0.60;99.90;;;;;;5128321;28;20023;-89
2021/12/25 19:59:08;;;;;;;12.23;7.00;;;-0.60;99.90;;;;;;5127852;28;20108;-89
2021/12/25 20:01:34;;;;;;;11.35;6.43;;;-0.60;99.90;;;;;;5127752;28;20047;-89
2021/12/25 20:04:01;;;;;;;9.82;5.30;;;-0.60;99.90;;;;;;5127657;28;20364;-90
2021/12/25 20:06:28;;;;;;;10.82;5.90;;;-0.70;99.30;;;;;;5127351;28;20389;-89
2021/12/25 20:08:57;;;;;;;11.80;6.53;;;-0.70;98.90;;;;;;5127757;28;20055;-89
2021/12/25 20:11:25;;;;;;;8.93;4.93;;;-0.70;99.90;;;;;;5127714;28;20489;-89
2021/12/25 20:13:52;;;;;;;8.80;5.72;;;-0.70;98.30;;;;;;5127474;28;20149;-90
2021/12/25 20:16:20;;;;;;;9.57;5.65;;;-0.70;97.20;;;;;;5127452;28;20048;-89
2021/12/25 20:18:47;;;;;;;11.88;5.63;;;-0.80;99.00;;;;;;5129615;28;20024;-90
2021/12/25 20:21:18;;;;;;;57.85;27.50;;;-0.80;98.90;;;;;;5128109;28;20024;-89
2021/12/25 20:23:44;;;;;;;13.52;6.32;;;-0.70;99.20;;;;;;5110060;28;20024;-90
2021/12/25 20:26:11;;;;;;;13.32;7.15;;;-0.70;99.40;;;;;;5127975;28;20466;-89
2021/12/25 20:28:37;;;;;;;10.07;5.00;;;-0.70;98.90;;;;;;5127706;28;20084;-89
2021/12/25 20:31:07;;;;;;;8.88;4.80;;;-0.70;99.80;;;;;;5127369;28;20051;-89
2021/12/25 20:33:33;;;;;;;10.87;5.50;;;-0.70;99.20;;;;;;5127114;28;20028;-89
2021/12/25 20:36:00;;;;;;;10.38;5.50;;;-0.80;98.50;;;;;;5127176;28;20020;-90
2021/12/25 20:38:27;;;;;;;10.30;5.43;;;-0.80;99.70;;;;;;5126844;28;20031;-89
2021/12/25 20:40:53;;;;;;;9.77;5.82;;;-0.80;98.80;;;;;;5115126;28;20028;-89
2021/12/25 20:43:23;;;;;;;10.05;5.65;;;-0.80;99.40;;;;;;5113186;28;20069;-89
2021/12/25 20:45:51;;;;;;;12.05;5.88;;;-0.80;99.90;;;;;;5097269;28;20031;-90
2021/12/25 20:48:23;;;;;;;14.23;6.95;;;-0.80;99.30;;;;;;5113091;28;20024;-90
2021/12/25 20:50:52;;;;;;;17.45;8.10;;;-0.80;99.80;;;;;;5113186;28;20016;-89
2021/12/25 20:53:19;;;;;;;27.63;9.15;;;-0.80;99.90;;;;;;5112425;28;20020;-89
2021/12/25 20:55:46;;;;;;;16.08;9.57;;;-0.80;99.90;;;;;;5112898;28;20028;-90
2021/12/25 20:58:12;;;;;;;18.63;9.15;;;-0.90;98.40;;;;;;5112855;28;20028;-89
2021/12/25 21:00:39;;;;;;;23.27;10.20;;;-0.90;97.70;;;;;;5113370;28;20039;-89
2021/12/25 21:03:05;;;;;;;16.00;8.35;;;-1.00;97.10;;;;;;5095853;28;20061;-90
2021/12/25 21:05:32;;;;;;;13.57;6.97;;;-1.10;97.30;;;;;;5101704;28;20486;-89
2021/12/25 21:07:59;;;;;;;15.88;7.72;;;-1.00;98.70;;;;;;5105886;28;20025;-90
2021/12/25 21:10:28;;;;;;;12.23;7.40;;;-1.10;98.30;;;;;;5092946;28;20020;-90
2021/12/25 21:12:55;;;;;;;22.60;10.18;;;-1.10;98.90;;;;;;5092395;28;20066;-89
2021/12/25 21:15:22;;;;;;;18.38;9.98;;;-1.10;99.70;;;;;;5075368;28;20167;-89
2021/12/25 21:17:48;;;;;;;22.38;9.50;;;-1.10;99.90;;;;;;5092223;28;20028;-89
2021/12/25 21:20:15;;;;;;;20.50;10.10;;;-1.10;99.90;;;;;;5092284;28;20482;-89
2021/12/25 21:22:42;;;;;;;13.65;7.57;;;-1.10;99.90;;;;;;5083134;28;20028;-90
2021/12/25 21:25:10;;;;;;;28.90;12.40;;;-1.20;99.80;;;;;;5095428;28;20115;-89
2021/12/25 21:27:36;;;;;;;20.33;9.50;;;-1.20;99.90;;;;;;5095318;28;20032;-89
2021/12/25 21:30:06;;;;;;;24.98;9.15;;;-1.30;99.70;;;;;;5095769;28;20081;-89
2021/12/25 21:32:32;;;;;;;15.98;7.57;;;-1.30;99.90;;;;;;5096228;28;20020;-89
2021/12/25 21:35:00;;;;;;;18.40;8.68;;;-1.40;99.90;;;;;;5095800;28;20114;-89
2021/12/25 21:37:26;;;;;;;18.48;8.55;;;-1.30;99.90;;;;;;5095155;28;20024;-89
2021/12/25 21:39:52;;;;;;;22.92;9.90;;;-1.30;99.90;;;;;;5094808;28;20062;-89
2021/12/25 21:42:17;;;;;;;36.03;14.63;;;-1.40;99.90;;;;;;5112041;28;20020;-89
2021/12/25 21:44:43;;;;;;;50.42;18.42;;;-1.40;99.90;;;;;;5095106;28;20069;-90
2021/12/25 21:47:10;;;;;;;37.75;14.30;;;-1.50;99.90;;;;;;5096306;28;20021;-89
2021/12/25 21:49:36;;;;;;;44.08;16.33;;;-1.50;99.90;;;;;;5095177;28;20032;-89
2021/12/25 21:52:02;;;;;;;23.35;10.50;;;-1.50;99.90;;;;;;5093960;28;20020;-89
2021/12/25 21:54:27;;;;;;;15.18;7.43;;;-1.50;99.90;;;;;;5095009;28;20524;-89
2021/12/25 21:56:53;;;;;;;15.02;7.90;;;-1.50;99.90;;;;;;5094697;28;20020;-89
2021/12/25 21:59:19;;;;;;;24.02;11.52;;;-1.50;99.90;;;;;;5094733;28;20048;-89
2021/12/25 22:01:44;;;;;;;26.75;14.02;;;-1.50;99.90;;;;;;5094715;28;20054;-89
2021/12/25 22:04:15;;;;;;;23.02;12.52;;;-1.50;99.90;;;;;;5094915;28;20024;-89
2021/12/25 22:06:41;;;;;;;27.38;12.70;;;-1.50;99.90;;;;;;5094677;28;20035;-89